sensor_id;sensor_type;location;lat;lon;timestamp;P1;durP1;ratioP1;P2;durP2;ratioP2
54193;SDS011;40102;50.906;6.972;2023-03-01T00:00:17;9.20;;;4.47;;
54193;SDS011;40102;50.906;6.972;2023-03-01T00:02:43;11.48;;;5.28;;
54193;SDS011;40102;50.906;6.972;2023-03-01T00:05:08;9.57;;;5.00;;
54193;SDS011;40102;50.906;6.972;2023-03-01T00:07:34;6.60;;;4.72;;
54193;SDS011;40102;50.906;6.972;2023-03-01T00:09:59;8.57;;;4.68;;
54193;SDS011;40102;50.906;6.972;2023-03-01T00:12:24;8.23;;;4.45;;
54193;SDS011;40102;50.906;6.972;2023-03-01T00:14:50;7.63;;;4.65;;
54193;SDS011;40102;50.906;6.972;2023-03-01T00:17:15;7.97;;;4.63;;
54193;SDS011;40102;50.906;6.972;2023-03-01T00:19:44;8.70;;;4.38;;
54193;SDS011;40102;50.906;6.972;2023-03-01T00:22:09;7.15;;;4.50;;
54193;SDS011;40102;50.906;6.972;2023-03-01T00:24:34;8.38;;;4.90;;
54193;SDS011;40102;50.906;6.972;2023-03-01T00:27:00;8.50;;;4.70;;
54193;SDS011;40102;50.906;6.972;2023-03-01T00:29:25;10.00;;;4.68;;
54193;SDS011;40102;50.906;6.972;2023-03-01T00:31:50;9.68;;;5.38;;
54193;SDS011;40102;50.906;6.972;2023-03-01T00:34:16;8.40;;;4.80;;
54193;SDS011;40102;50.906;6.972;2023-03-01T00:36:41;8.00;;;4.68;;
54193;SDS011;40102;50.906;6.972;2023-03-01T00:39:09;7.38;;;4.40;;
54193;SDS011;40102;50.906;6.972;2023-03-01T00:41:37;8.25;;;4.65;;
54193;SDS011;40102;50.906;6.972;2023-03-01T00:44:02;8.43;;;4.68;;
54193;SDS011;40102;50.906;6.972;2023-03-01T00:46:28;7.53;;;4.05;;
54193;SDS011;40102;50.906;6.972;2023-03-01T00:48:55;8.43;;;4.68;;
54193;SDS011;40102;50.906;6.972;2023-03-01T00:51:22;9.80;;;4.68;;
54193;SDS011;40102;50.906;6.972;2023-03-01T00:53:51;7.25;;;3.90;;
54193;SDS011;40102;50.906;6.972;2023-03-01T00:56:18;7.18;;;4.50;;
54193;SDS011;40102;50.906;6.972;2023-03-01T00:58:45;7.85;;;4.40;;
54193;SDS011;40102;50.906;6.972;2023-03-01T01:01:13;8.73;;;4.25;;
54193;SDS011;40102;50.906;6.972;2023-03-01T01:03:51;9.05;;;5.03;;
54193;SDS011;40102;50.906;6.972;2023-03-01T01:06:25;7.43;;;4.28;;
54193;SDS011;40102;50.906;6.972;2023-03-01T01:08:51;6.63;;;3.95;;
54193;SDS011;40102;50.906;6.972;2023-03-01T01:11:19;9.23;;;5.10;;
54193;SDS011;40102;50.906;6.972;2023-03-01T01:13:46;8.27;;;4.70;;
54193;SDS011;40102;50.906;6.972;2023-03-01T01:16:13;9.05;;;4.70;;
54193;SDS011;40102;50.906;6.972;2023-03-01T01:18:40;7.95;;;4.57;;
54193;SDS011;40102;50.906;6.972;2023-03-01T01:21:06;9.07;;;4.25;;
54193;SDS011;40102;50.906;6.972;2023-03-01T01:23:33;7.13;;;4.20;;
54193;SDS011;40102;50.906;6.972;2023-03-01T01:26:15;7.18;;;4.45;;
54193;SDS011;40102;50.906;6.972;2023-03-01T01:28:43;8.25;;;4.13;;
54193;SDS011;40102;50.906;6.972;2023-03-01T01:31:10;6.55;;;3.63;;
54193;SDS011;40102;50.906;6.972;2023-03-01T01:33:36;6.97;;;4.00;;
54193;SDS011;40102;50.906;6.972;2023-03-01T01:36:04;5.85;;;3.63;;
54193;SDS011;40102;50.906;6.972;2023-03-01T01:38:31;8.05;;;4.05;;
54193;SDS011;40102;50.906;6.972;2023-03-01T01:40:56;7.18;;;3.97;;
54193;SDS011;40102;50.906;6.972;2023-03-01T01:49:10;7.32;;;4.25;;
54193;SDS011;40102;50.906;6.972;2023-03-01T01:51:39;8.02;;;3.97;;
54193;SDS011;40102;50.906;6.972;2023-03-01T01:54:16;8.00;;;4.57;;
54193;SDS011;40102;50.906;6.972;2023-03-01T01:56:53;7.60;;;4.20;;
54193;SDS011;40102;50.906;6.972;2023-03-01T01:59:24;8.77;;;5.35;;
54193;SDS011;40102;50.906;6.972;2023-03-01T02:01:53;7.43;;;4.57;;
54193;SDS011;40102;50.906;6.972;2023-03-01T02:04:20;7.78;;;4.55;;
54193;SDS011;40102;50.906;6.972;2023-03-01T02:07:09;9.85;;;4.38;;
54193;SDS011;40102;50.906;6.972;2023-03-01T02:09:45;7.38;;;3.80;;
54193;SDS011;40102;50.906;6.972;2023-03-01T02:12:14;6.93;;;4.30;;
54193;SDS011;40102;50.906;6.972;2023-03-01T02:14:42;7.75;;;4.03;;
54193;SDS011;40102;50.906;6.972;2023-03-01T02:17:09;8.23;;;4.55;;
54193;SDS011;40102;50.906;6.972;2023-03-01T02:22:41;8.60;;;4.30;;
54193;SDS011;40102;50.906;6.972;2023-03-01T02:27:58;7.63;;;3.63;;
54193;SDS011;40102;50.906;6.972;2023-03-01T02:30:37;6.85;;;4.15;;
54193;SDS011;40102;50.906;6.972;2023-03-01T02:33:23;9.38;;;4.43;;
54193;SDS011;40102;50.906;6.972;2023-03-01T02:35:52;6.90;;;4.10;;
54193;SDS011;40102;50.906;6.972;2023-03-01T02:38:19;6.20;;;4.13;;
54193;SDS011;40102;50.906;6.972;2023-03-01T02:40:46;6.13;;;3.65;;
54193;SDS011;40102;50.906;6.972;2023-03-01T02:43:16;6.07;;;3.55;;
54193;SDS011;40102;50.906;6.972;2023-03-01T02:45:51;7.00;;;3.92;;
54193;SDS011;40102;50.906;6.972;2023-03-01T02:48:18;6.00;;;4.03;;
54193;SDS011;40102;50.906;6.972;2023-03-01T02:50:50;8.23;;;4.45;;
54193;SDS011;40102;50.906;6.972;2023-03-01T02:53:32;6.88;;;4.18;;
54193;SDS011;40102;50.906;6.972;2023-03-01T02:56:11;9.68;;;4.80;;
54193;SDS011;40102;50.906;6.972;2023-03-01T02:58:39;8.25;;;4.10;;
54193;SDS011;40102;50.906;6.972;2023-03-01T03:01:13;8.85;;;4.00;;
54193;SDS011;40102;50.906;6.972;2023-03-01T03:03:41;7.57;;;4.20;;
54193;SDS011;40102;50.906;6.972;2023-03-01T03:06:07;8.18;;;3.53;;
54193;SDS011;40102;50.906;6.972;2023-03-01T03:08:33;7.47;;;4.40;;
54193;SDS011;40102;50.906;6.972;2023-03-01T03:10:59;6.72;;;4.00;;
54193;SDS011;40102;50.906;6.972;2023-03-01T03:13:25;7.72;;;4.35;;
54193;SDS011;40102;50.906;6.972;2023-03-01T03:15:54;7.43;;;4.78;;
54193;SDS011;40102;50.906;6.972;2023-03-01T03:18:21;8.20;;;4.80;;
54193;SDS011;40102;50.906;6.972;2023-03-01T03:20:48;6.07;;;4.03;;
54193;SDS011;40102;50.906;6.972;2023-03-01T03:23:18;8.60;;;4.55;;
54193;SDS011;40102;50.906;6.972;2023-03-01T03:25:47;7.63;;;4.20;;
54193;SDS011;40102;50.906;6.972;2023-03-01T03:28:14;10.20;;;4.95;;
54193;SDS011;40102;50.906;6.972;2023-03-01T03:30:41;8.13;;;4.72;;
54193;SDS011;40102;50.906;6.972;2023-03-01T03:33:08;6.72;;;4.25;;
54193;SDS011;40102;50.906;6.972;2023-03-01T03:35:40;7.50;;;4.40;;
54193;SDS011;40102;50.906;6.972;2023-03-01T03:38:08;6.45;;;4.03;;
54193;SDS011;40102;50.906;6.972;2023-03-01T03:40:50;6.88;;;4.13;;
54193;SDS011;40102;50.906;6.972;2023-03-01T03:43:27;6.72;;;3.65;;
54193;SDS011;40102;50.906;6.972;2023-03-01T03:45:54;7.43;;;4.15;;
54193;SDS011;40102;50.906;6.972;2023-03-01T03:48:22;8.60;;;3.83;;
54193;SDS011;40102;50.906;6.972;2023-03-01T03:50:50;7.32;;;3.85;;
54193;SDS011;40102;50.906;6.972;2023-03-01T03:53:18;8.35;;;4.28;;
54193;SDS011;40102;50.906;6.972;2023-03-01T03:55:44;7.78;;;4.32;;
54193;SDS011;40102;50.906;6.972;2023-03-01T03:58:14;7.55;;;4.20;;
54193;SDS011;40102;50.906;6.972;2023-03-01T04:00:42;9.95;;;4.78;;
54193;SDS011;40102;50.906;6.972;2023-03-01T04:03:10;7.22;;;3.78;;
54193;SDS011;40102;50.906;6.972;2023-03-01T04:05:38;6.45;;;3.78;;
54193;SDS011;40102;50.906;6.972;2023-03-01T04:08:06;6.82;;;3.50;;
54193;SDS011;40102;50.906;6.972;2023-03-01T04:10:37;6.97;;;3.63;;
54193;SDS011;40102;50.906;6.972;2023-03-01T04:13:05;6.07;;;3.60;;
54193;SDS011;40102;50.906;6.972;2023-03-01T04:15:32;6.80;;;3.70;;
54193;SDS011;40102;50.906;6.972;2023-03-01T04:17:59;6.93;;;3.70;;
54193;SDS011;40102;50.906;6.972;2023-03-01T04:20:27;5.32;;;3.55;;
54193;SDS011;40102;50.906;6.972;2023-03-01T04:28:14;7.18;;;4.13;;
54193;SDS011;40102;50.906;6.972;2023-03-01T04:30:40;7.93;;;4.78;;
54193;SDS011;40102;50.906;6.972;2023-03-01T04:33:07;8.38;;;4.72;;
54193;SDS011;40102;50.906;6.972;2023-03-01T04:35:34;7.30;;;3.95;;
54193;SDS011;40102;50.906;6.972;2023-03-01T04:38:01;7.75;;;4.55;;
54193;SDS011;40102;50.906;6.972;2023-03-01T04:40:27;7.45;;;4.05;;
54193;SDS011;40102;50.906;6.972;2023-03-01T04:42:53;7.85;;;3.70;;
54193;SDS011;40102;50.906;6.972;2023-03-01T04:45:19;7.10;;;4.03;;
54193;SDS011;40102;50.906;6.972;2023-03-01T04:47:45;8.88;;;4.30;;
54193;SDS011;40102;50.906;6.972;2023-03-01T04:50:13;5.80;;;3.85;;
54193;SDS011;40102;50.906;6.972;2023-03-01T04:52:40;7.57;;;4.20;;
54193;SDS011;40102;50.906;6.972;2023-03-01T04:55:06;6.38;;;4.00;;
54193;SDS011;40102;50.906;6.972;2023-03-01T04:57:33;9.18;;;4.32;;
54193;SDS011;40102;50.906;6.972;2023-03-01T04:59:59;7.78;;;5.20;;
54193;SDS011;40102;50.906;6.972;2023-03-01T05:02:24;7.88;;;4.20;;
54193;SDS011;40102;50.906;6.972;2023-03-01T05:04:51;9.02;;;4.57;;
54193;SDS011;40102;50.906;6.972;2023-03-01T05:07:17;7.35;;;4.80;;
54193;SDS011;40102;50.906;6.972;2023-03-01T05:09:45;8.85;;;4.68;;
54193;SDS011;40102;50.906;6.972;2023-03-01T05:12:12;7.15;;;4.45;;
54193;SDS011;40102;50.906;6.972;2023-03-01T05:14:38;7.18;;;4.53;;
54193;SDS011;40102;50.906;6.972;2023-03-01T05:17:04;8.75;;;4.97;;
54193;SDS011;40102;50.906;6.972;2023-03-01T05:19:31;9.02;;;5.45;;
54193;SDS011;40102;50.906;6.972;2023-03-01T05:21:57;11.07;;;5.60;;
54193;SDS011;40102;50.906;6.972;2023-03-01T05:24:26;8.40;;;4.95;;
54193;SDS011;40102;50.906;6.972;2023-03-01T05:26:53;10.38;;;5.63;;
54193;SDS011;40102;50.906;6.972;2023-03-01T05:29:20;8.40;;;4.95;;
54193;SDS011;40102;50.906;6.972;2023-03-01T05:32:00;14.73;;;5.43;;
54193;SDS011;40102;50.906;6.972;2023-03-01T05:34:28;7.50;;;4.55;;
54193;SDS011;40102;50.906;6.972;2023-03-01T05:36:57;11.50;;;5.35;;
54193;SDS011;40102;50.906;6.972;2023-03-01T05:39:23;8.75;;;5.10;;
54193;SDS011;40102;50.906;6.972;2023-03-01T05:41:57;8.60;;;5.13;;
54193;SDS011;40102;50.906;6.972;2023-03-01T05:44:25;9.40;;;4.93;;
54193;SDS011;40102;50.906;6.972;2023-03-01T05:46:51;9.23;;;5.30;;
54193;SDS011;40102;50.906;6.972;2023-03-01T05:49:17;8.93;;;4.95;;
54193;SDS011;40102;50.906;6.972;2023-03-01T05:51:47;9.90;;;5.57;;
54193;SDS011;40102;50.906;6.972;2023-03-01T05:54:14;10.85;;;5.70;;
54193;SDS011;40102;50.906;6.972;2023-03-01T05:56:39;9.50;;;5.35;;
54193;SDS011;40102;50.906;6.972;2023-03-01T05:59:05;10.27;;;5.68;;
54193;SDS011;40102;50.906;6.972;2023-03-01T06:01:32;10.38;;;6.15;;
54193;SDS011;40102;50.906;6.972;2023-03-01T06:03:59;10.75;;;5.38;;
54193;SDS011;40102;50.906;6.972;2023-03-01T06:06:25;8.45;;;4.57;;
54193;SDS011;40102;50.906;6.972;2023-03-01T06:08:51;10.65;;;6.03;;
54193;SDS011;40102;50.906;6.972;2023-03-01T06:11:17;11.07;;;5.82;;
54193;SDS011;40102;50.906;6.972;2023-03-01T06:13:43;11.63;;;5.80;;
54193;SDS011;40102;50.906;6.972;2023-03-01T06:16:10;9.45;;;5.38;;
54193;SDS011;40102;50.906;6.972;2023-03-01T06:18:36;8.57;;;4.72;;
54193;SDS011;40102;50.906;6.972;2023-03-01T06:21:03;8.32;;;5.10;;
54193;SDS011;40102;50.906;6.972;2023-03-01T06:23:31;7.60;;;4.68;;
54193;SDS011;40102;50.906;6.972;2023-03-01T06:25:57;10.88;;;6.25;;
54193;SDS011;40102;50.906;6.972;2023-03-01T06:28:23;11.57;;;5.75;;
54193;SDS011;40102;50.906;6.972;2023-03-01T06:30:49;10.63;;;5.65;;
54193;SDS011;40102;50.906;6.972;2023-03-01T06:33:15;9.55;;;5.30;;
54193;SDS011;40102;50.906;6.972;2023-03-01T06:35:41;7.57;;;5.07;;
54193;SDS011;40102;50.906;6.972;2023-03-01T06:38:07;10.88;;;4.35;;
54193;SDS011;40102;50.906;6.972;2023-03-01T06:40:33;12.45;;;6.20;;
54193;SDS011;40102;50.906;6.972;2023-03-01T06:43:00;9.90;;;5.25;;
54193;SDS011;40102;50.906;6.972;2023-03-01T06:45:26;10.73;;;5.85;;
54193;SDS011;40102;50.906;6.972;2023-03-01T06:47:52;11.18;;;6.50;;
54193;SDS011;40102;50.906;6.972;2023-03-01T06:50:26;10.02;;;5.40;;
54193;SDS011;40102;50.906;6.972;2023-03-01T06:52:55;8.73;;;5.03;;
54193;SDS011;40102;50.906;6.972;2023-03-01T06:55:21;10.80;;;5.72;;
54193;SDS011;40102;50.906;6.972;2023-03-01T06:57:47;11.48;;;5.70;;
54193;SDS011;40102;50.906;6.972;2023-03-01T07:00:12;10.75;;;5.85;;
54193;SDS011;40102;50.906;6.972;2023-03-01T07:02:38;10.38;;;5.50;;
54193;SDS011;40102;50.906;6.972;2023-03-01T07:05:05;9.48;;;5.55;;
54193;SDS011;40102;50.906;6.972;2023-03-01T07:07:32;9.52;;;5.55;;
54193;SDS011;40102;50.906;6.972;2023-03-01T07:09:59;10.32;;;5.80;;
54193;SDS011;40102;50.906;6.972;2023-03-01T07:12:25;9.95;;;5.15;;
54193;SDS011;40102;50.906;6.972;2023-03-01T07:14:51;10.02;;;5.28;;
54193;SDS011;40102;50.906;6.972;2023-03-01T07:17:17;9.90;;;5.70;;
54193;SDS011;40102;50.906;6.972;2023-03-01T07:19:44;10.30;;;5.15;;
54193;SDS011;40102;50.906;6.972;2023-03-01T07:22:10;8.95;;;5.22;;
54193;SDS011;40102;50.906;6.972;2023-03-01T07:24:35;10.25;;;5.18;;
54193;SDS011;40102;50.906;6.972;2023-03-01T07:27:01;10.38;;;5.35;;
54193;SDS011;40102;50.906;6.972;2023-03-01T07:29:28;8.27;;;4.90;;
54193;SDS011;40102;50.906;6.972;2023-03-01T07:31:54;9.65;;;4.90;;
54193;SDS011;40102;50.906;6.972;2023-03-01T07:34:21;8.65;;;4.93;;
54193;SDS011;40102;50.906;6.972;2023-03-01T07:36:47;9.80;;;5.35;;
54193;SDS011;40102;50.906;6.972;2023-03-01T07:39:13;9.90;;;5.20;;
54193;SDS011;40102;50.906;6.972;2023-03-01T07:41:38;10.18;;;5.93;;
54193;SDS011;40102;50.906;6.972;2023-03-01T07:44:04;8.57;;;4.82;;
54193;SDS011;40102;50.906;6.972;2023-03-01T07:46:30;11.30;;;5.53;;
54193;SDS011;40102;50.906;6.972;2023-03-01T07:48:57;13.18;;;6.43;;
54193;SDS011;40102;50.906;6.972;2023-03-01T07:51:23;10.05;;;5.85;;
54193;SDS011;40102;50.906;6.972;2023-03-01T07:53:49;11.18;;;6.65;;
54193;SDS011;40102;50.906;6.972;2023-03-01T07:56:15;10.68;;;6.07;;
54193;SDS011;40102;50.906;6.972;2023-03-01T07:58:43;14.18;;;6.80;;
54193;SDS011;40102;50.906;6.972;2023-03-01T08:01:14;12.30;;;6.82;;
54193;SDS011;40102;50.906;6.972;2023-03-01T08:03:42;11.77;;;6.25;;
54193;SDS011;40102;50.906;6.972;2023-03-01T08:06:11;10.90;;;5.95;;
54193;SDS011;40102;50.906;6.972;2023-03-01T08:08:38;13.15;;;6.50;;
54193;SDS011;40102;50.906;6.972;2023-03-01T08:11:11;10.52;;;5.80;;
54193;SDS011;40102;50.906;6.972;2023-03-01T08:13:43;10.88;;;5.95;;
54193;SDS011;40102;50.906;6.972;2023-03-01T08:16:13;11.37;;;5.80;;
54193;SDS011;40102;50.906;6.972;2023-03-01T08:18:41;11.55;;;6.03;;
54193;SDS011;40102;50.906;6.972;2023-03-01T08:21:08;12.00;;;7.05;;
54193;SDS011;40102;50.906;6.972;2023-03-01T08:23:36;13.43;;;7.03;;
54193;SDS011;40102;50.906;6.972;2023-03-01T08:28:39;14.07;;;7.47;;
54193;SDS011;40102;50.906;6.972;2023-03-01T08:31:25;13.65;;;7.45;;
54193;SDS011;40102;50.906;6.972;2023-03-01T08:33:53;15.27;;;7.35;;
54193;SDS011;40102;50.906;6.972;2023-03-01T08:36:23;13.75;;;7.22;;
54193;SDS011;40102;50.906;6.972;2023-03-01T08:38:53;13.48;;;6.88;;
54193;SDS011;40102;50.906;6.972;2023-03-01T08:41:20;14.32;;;6.63;;
54193;SDS011;40102;50.906;6.972;2023-03-01T08:43:46;11.48;;;5.70;;
54193;SDS011;40102;50.906;6.972;2023-03-01T08:46:12;10.50;;;5.80;;
54193;SDS011;40102;50.906;6.972;2023-03-01T08:48:39;12.93;;;6.65;;
54193;SDS011;40102;50.906;6.972;2023-03-01T08:51:12;14.00;;;7.38;;
54193;SDS011;40102;50.906;6.972;2023-03-01T08:53:40;12.00;;;6.65;;
54193;SDS011;40102;50.906;6.972;2023-03-01T08:56:07;11.30;;;6.10;;
54193;SDS011;40102;50.906;6.972;2023-03-01T08:58:34;12.48;;;6.60;;
54193;SDS011;40102;50.906;6.972;2023-03-01T09:01:00;11.27;;;5.68;;
54193;SDS011;40102;50.906;6.972;2023-03-01T09:03:26;13.48;;;7.45;;
54193;SDS011;40102;50.906;6.972;2023-03-01T09:05:52;14.73;;;7.82;;
54193;SDS011;40102;50.906;6.972;2023-03-01T09:08:18;15.00;;;7.13;;
54193;SDS011;40102;50.906;6.972;2023-03-01T09:10:44;12.60;;;7.22;;
54193;SDS011;40102;50.906;6.972;2023-03-01T09:13:10;14.38;;;7.82;;
54193;SDS011;40102;50.906;6.972;2023-03-01T09:15:36;13.60;;;6.57;;
54193;SDS011;40102;50.906;6.972;2023-03-01T09:18:03;15.20;;;7.68;;
54193;SDS011;40102;50.906;6.972;2023-03-01T09:20:28;11.55;;;6.32;;
54193;SDS011;40102;50.906;6.972;2023-03-01T09:22:56;11.27;;;5.70;;
54193;SDS011;40102;50.906;6.972;2023-03-01T09:25:21;13.52;;;7.05;;
54193;SDS011;40102;50.906;6.972;2023-03-01T09:27:47;14.02;;;6.85;;
54193;SDS011;40102;50.906;6.972;2023-03-01T09:30:12;14.20;;;6.88;;
54193;SDS011;40102;50.906;6.972;2023-03-01T09:32:38;15.68;;;6.50;;
54193;SDS011;40102;50.906;6.972;2023-03-01T09:35:07;11.75;;;6.05;;
54193;SDS011;40102;50.906;6.972;2023-03-01T09:37:33;16.08;;;6.90;;
54193;SDS011;40102;50.906;6.972;2023-03-01T09:39:59;13.38;;;6.80;;
54193;SDS011;40102;50.906;6.972;2023-03-01T09:42:25;13.82;;;6.65;;
54193;SDS011;40102;50.906;6.972;2023-03-01T09:50:15;15.02;;;6.70;;
54193;SDS011;40102;50.906;6.972;2023-03-01T09:52:44;11.05;;;5.75;;
54193;SDS011;40102;50.906;6.972;2023-03-01T09:55:14;14.05;;;6.90;;
54193;SDS011;40102;50.906;6.972;2023-03-01T09:57:52;12.40;;;6.45;;
54193;SDS011;40102;50.906;6.972;2023-03-01T10:00:30;12.23;;;6.25;;
54193;SDS011;40102;50.906;6.972;2023-03-01T10:05:44;12.82;;;6.40;;
54193;SDS011;40102;50.906;6.972;2023-03-01T10:11:23;12.30;;;6.50;;
54193;SDS011;40102;50.906;6.972;2023-03-01T10:16:28;11.93;;;6.65;;
54193;SDS011;40102;50.906;6.972;2023-03-01T10:19:05;13.23;;;6.40;;
54193;SDS011;40102;50.906;6.972;2023-03-01T10:21:37;13.25;;;6.60;;
54193;SDS011;40102;50.906;6.972;2023-03-01T10:24:17;11.43;;;6.70;;
54193;SDS011;40102;50.906;6.972;2023-03-01T10:26:52;11.85;;;6.40;;
54193;SDS011;40102;50.906;6.972;2023-03-01T10:29:26;14.65;;;6.68;;
54193;SDS011;40102;50.906;6.972;2023-03-01T10:31:59;13.07;;;6.97;;
54193;SDS011;40102;50.906;6.972;2023-03-01T10:34:29;12.00;;;6.35;;
54193;SDS011;40102;50.906;6.972;2023-03-01T10:37:15;17.15;;;7.25;;
54193;SDS011;40102;50.906;6.972;2023-03-01T10:42:34;13.50;;;7.30;;
54193;SDS011;40102;50.906;6.972;2023-03-01T10:48:02;12.90;;;6.45;;
54193;SDS011;40102;50.906;6.972;2023-03-01T10:50:29;10.57;;;6.00;;
54193;SDS011;40102;50.906;6.972;2023-03-01T10:52:56;13.23;;;6.68;;
54193;SDS011;40102;50.906;6.972;2023-03-01T10:55:26;13.30;;;6.70;;
54193;SDS011;40102;50.906;6.972;2023-03-01T11:03:17;12.43;;;6.28;;
54193;SDS011;40102;50.906;6.972;2023-03-01T11:14:06;14.23;;;7.13;;
54193;SDS011;40102;50.906;6.972;2023-03-01T11:21:34;13.70;;;6.43;;
54193;SDS011;40102;50.906;6.972;2023-03-01T11:24:03;12.63;;;5.82;;
54193;SDS011;40102;50.906;6.972;2023-03-01T11:26:31;11.27;;;6.43;;
54193;SDS011;40102;50.906;6.972;2023-03-01T11:29:04;15.00;;;7.18;;
54193;SDS011;40102;50.906;6.972;2023-03-01T11:31:32;10.68;;;5.82;;
54193;SDS011;40102;50.906;6.972;2023-03-01T11:34:11;13.63;;;7.05;;
54193;SDS011;40102;50.906;6.972;2023-03-01T11:39:31;14.05;;;6.15;;
54193;SDS011;40102;50.906;6.972;2023-03-01T11:42:10;12.50;;;5.65;;
54193;SDS011;40102;50.906;6.972;2023-03-01T11:44:39;8.50;;;5.05;;
54193;SDS011;40102;50.906;6.972;2023-03-01T11:53:03;10.23;;;5.95;;
54193;SDS011;40102;50.906;6.972;2023-03-01T12:04:14;11.18;;;6.05;;
54193;SDS011;40102;50.906;6.972;2023-03-01T12:36:20;12.07;;;6.55;;
54193;SDS011;40102;50.906;6.972;2023-03-01T12:38:49;12.05;;;6.47;;
54193;SDS011;40102;50.906;6.972;2023-03-01T12:44:21;9.32;;;5.68;;
54193;SDS011;40102;50.906;6.972;2023-03-01T13:00:36;11.27;;;6.05;;
54193;SDS011;40102;50.906;6.972;2023-03-01T13:03:24;10.23;;;5.70;;
54193;SDS011;40102;50.906;6.972;2023-03-01T13:06:06;9.13;;;5.22;;
54193;SDS011;40102;50.906;6.972;2023-03-01T13:08:47;9.88;;;5.65;;
54193;SDS011;40102;50.906;6.972;2023-03-01T13:11:23;10.50;;;5.47;;
54193;SDS011;40102;50.906;6.972;2023-03-01T13:13:49;11.02;;;5.93;;
54193;SDS011;40102;50.906;6.972;2023-03-01T13:16:20;10.18;;;5.60;;
54193;SDS011;40102;50.906;6.972;2023-03-01T13:21:52;8.63;;;5.10;;
54193;SDS011;40102;50.906;6.972;2023-03-01T13:27:09;10.82;;;5.57;;
54193;SDS011;40102;50.906;6.972;2023-03-01T13:29:46;11.63;;;6.05;;
54193;SDS011;40102;50.906;6.972;2023-03-01T13:35:03;10.25;;;5.47;;
54193;SDS011;40102;50.906;6.972;2023-03-01T13:37:48;8.38;;;5.00;;
54193;SDS011;40102;50.906;6.972;2023-03-01T13:42:47;8.80;;;5.87;;
54193;SDS011;40102;50.906;6.972;2023-03-01T13:47:41;11.50;;;5.30;;
54193;SDS011;40102;50.906;6.972;2023-03-01T13:50:15;8.70;;;5.38;;
54193;SDS011;40102;50.906;6.972;2023-03-01T13:52:48;10.07;;;5.18;;
54193;SDS011;40102;50.906;6.972;2023-03-01T13:55:40;10.57;;;5.53;;
54193;SDS011;40102;50.906;6.972;2023-03-01T13:58:21;8.20;;;5.40;;
54193;SDS011;40102;50.906;6.972;2023-03-01T14:00:47;10.77;;;5.53;;
54193;SDS011;40102;50.906;6.972;2023-03-01T14:03:24;10.02;;;5.07;;
54193;SDS011;40102;50.906;6.972;2023-03-01T14:08:27;7.35;;;4.88;;
54193;SDS011;40102;50.906;6.972;2023-03-01T14:13:46;7.55;;;4.95;;
54193;SDS011;40102;50.906;6.972;2023-03-01T14:19:23;9.45;;;5.38;;
54193;SDS011;40102;50.906;6.972;2023-03-01T14:25:35;8.73;;;4.80;;
54193;SDS011;40102;50.906;6.972;2023-03-01T14:28:12;8.52;;;4.55;;
54193;SDS011;40102;50.906;6.972;2023-03-01T14:30:48;7.50;;;4.38;;
54193;SDS011;40102;50.906;6.972;2023-03-01T14:35:54;8.25;;;4.60;;
54193;SDS011;40102;50.906;6.972;2023-03-01T14:41:21;7.45;;;3.90;;
54193;SDS011;40102;50.906;6.972;2023-03-01T14:46:26;9.00;;;4.88;;
54193;SDS011;40102;50.906;6.972;2023-03-01T14:49:25;6.93;;;4.25;;
54193;SDS011;40102;50.906;6.972;2023-03-01T14:54:40;8.38;;;4.55;;
54193;SDS011;40102;50.906;6.972;2023-03-01T14:57:15;6.85;;;4.55;;
54193;SDS011;40102;50.906;6.972;2023-03-01T14:59:43;8.63;;;4.57;;
54193;SDS011;40102;50.906;6.972;2023-03-01T15:02:12;9.00;;;5.30;;
54193;SDS011;40102;50.906;6.972;2023-03-01T15:04:42;14.27;;;5.28;;
54193;SDS011;40102;50.906;6.972;2023-03-01T15:07:10;6.32;;;4.15;;
54193;SDS011;40102;50.906;6.972;2023-03-01T15:09:40;8.68;;;5.20;;
54193;SDS011;40102;50.906;6.972;2023-03-01T15:17:58;6.90;;;3.83;;
54193;SDS011;40102;50.906;6.972;2023-03-01T15:20:26;7.00;;;4.43;;
54193;SDS011;40102;50.906;6.972;2023-03-01T15:22:56;9.10;;;5.35;;
54193;SDS011;40102;50.906;6.972;2023-03-01T15:25:26;6.72;;;4.38;;
54193;SDS011;40102;50.906;6.972;2023-03-01T15:27:54;9.15;;;5.35;;
54193;SDS011;40102;50.906;6.972;2023-03-01T15:30:22;6.57;;;4.53;;
54193;SDS011;40102;50.906;6.972;2023-03-01T15:35:46;10.18;;;5.93;;
54193;SDS011;40102;50.906;6.972;2023-03-01T15:40:58;7.13;;;4.53;;
54193;SDS011;40102;50.906;6.972;2023-03-01T15:46:44;8.55;;;4.68;;
54193;SDS011;40102;50.906;6.972;2023-03-01T15:49:25;8.57;;;4.95;;
54193;SDS011;40102;50.906;6.972;2023-03-01T15:52:06;7.80;;;4.88;;
54193;SDS011;40102;50.906;6.972;2023-03-01T15:54:57;11.98;;;4.40;;
54193;SDS011;40102;50.906;6.972;2023-03-01T15:57:24;7.00;;;4.22;;
54193;SDS011;40102;50.906;6.972;2023-03-01T15:59:49;7.00;;;4.35;;
54193;SDS011;40102;50.906;6.972;2023-03-01T16:02:15;9.00;;;4.68;;
54193;SDS011;40102;50.906;6.972;2023-03-01T16:04:40;6.63;;;4.15;;
54193;SDS011;40102;50.906;6.972;2023-03-01T16:07:06;5.65;;;3.92;;
54193;SDS011;40102;50.906;6.972;2023-03-01T16:09:31;5.95;;;3.90;;
54193;SDS011;40102;50.906;6.972;2023-03-01T16:11:57;6.70;;;4.03;;
54193;SDS011;40102;50.906;6.972;2023-03-01T16:14:23;7.72;;;4.68;;
54193;SDS011;40102;50.906;6.972;2023-03-01T16:16:48;10.18;;;4.70;;
54193;SDS011;40102;50.906;6.972;2023-03-01T16:19:14;7.68;;;4.90;;
54193;SDS011;40102;50.906;6.972;2023-03-01T16:21:40;6.30;;;4.03;;
54193;SDS011;40102;50.906;6.972;2023-03-01T16:24:07;6.18;;;4.05;;
54193;SDS011;40102;50.906;6.972;2023-03-01T16:26:32;8.25;;;4.75;;
54193;SDS011;40102;50.906;6.972;2023-03-01T16:28:58;6.28;;;4.10;;
54193;SDS011;40102;50.906;6.972;2023-03-01T16:31:23;9.25;;;4.70;;
54193;SDS011;40102;50.906;6.972;2023-03-01T16:33:55;6.80;;;4.25;;
54193;SDS011;40102;50.906;6.972;2023-03-01T16:36:21;7.10;;;4.73;;
54193;SDS011;40102;50.906;6.972;2023-03-01T16:38:52;6.88;;;4.72;;
54193;SDS011;40102;50.906;6.972;2023-03-01T16:41:19;10.15;;;4.93;;
54193;SDS011;40102;50.906;6.972;2023-03-01T16:43:46;9.30;;;4.20;;
54193;SDS011;40102;50.906;6.972;2023-03-01T16:46:19;7.70;;;4.65;;
54193;SDS011;40102;50.906;6.972;2023-03-01T16:48:50;7.88;;;4.82;;
54193;SDS011;40102;50.906;6.972;2023-03-01T16:51:16;6.22;;;3.92;;
54193;SDS011;40102;50.906;6.972;2023-03-01T16:53:42;7.93;;;3.90;;
54193;SDS011;40102;50.906;6.972;2023-03-01T16:56:09;9.10;;;5.03;;
54193;SDS011;40102;50.906;6.972;2023-03-01T16:58:37;7.65;;;4.72;;
54193;SDS011;40102;50.906;6.972;2023-03-01T17:01:07;7.13;;;4.10;;
54193;SDS011;40102;50.906;6.972;2023-03-01T17:03:34;8.45;;;4.55;;
54193;SDS011;40102;50.906;6.972;2023-03-01T17:06:07;7.95;;;4.53;;
54193;SDS011;40102;50.906;6.972;2023-03-01T17:08:37;8.35;;;4.65;;
54193;SDS011;40102;50.906;6.972;2023-03-01T17:11:10;8.38;;;4.70;;
54193;SDS011;40102;50.906;6.972;2023-03-01T17:13:43;9.13;;;4.30;;
54193;SDS011;40102;50.906;6.972;2023-03-01T17:16:11;7.57;;;4.28;;
54193;SDS011;40102;50.906;6.972;2023-03-01T17:18:38;11.68;;;5.10;;
54193;SDS011;40102;50.906;6.972;2023-03-01T17:21:04;7.72;;;4.63;;
54193;SDS011;40102;50.906;6.972;2023-03-01T17:23:31;8.90;;;4.50;;
54193;SDS011;40102;50.906;6.972;2023-03-01T17:25:57;7.97;;;4.43;;
54193;SDS011;40102;50.906;6.972;2023-03-01T17:28:24;8.52;;;4.75;;
54193;SDS011;40102;50.906;6.972;2023-03-01T17:30:51;7.97;;;4.68;;
54193;SDS011;40102;50.906;6.972;2023-03-01T17:33:17;9.02;;;4.90;;
54193;SDS011;40102;50.906;6.972;2023-03-01T17:35:43;8.95;;;4.68;;
54193;SDS011;40102;50.906;6.972;2023-03-01T17:38:11;10.15;;;5.47;;
54193;SDS011;40102;50.906;6.972;2023-03-01T17:40:39;8.43;;;4.80;;
54193;SDS011;40102;50.906;6.972;2023-03-01T17:43:06;7.15;;;4.70;;
54193;SDS011;40102;50.906;6.972;2023-03-01T17:45:32;9.65;;;4.80;;